createdAt,value
2022-11-13T00:01:15.172Z,8.80
2022-11-13T00:04:01.506Z,8.80
2022-11-13T00:06:48.055Z,8.70
2022-11-13T00:09:36.264Z,8.80
2022-11-13T00:12:22.625Z,8.70
2022-11-13T00:15:09.829Z,8.70
2022-11-13T00:17:56.267Z,8.70
2022-11-13T00:20:42.728Z,8.70
2022-11-13T00:23:29.141Z,8.70
2022-11-13T00:26:19.504Z,8.60
2022-11-13T00:29:06.248Z,8.60
2022-11-13T00:31:52.544Z,8.60
2022-11-13T00:34:47.560Z,8.60
2022-11-13T00:37:34.823Z,8.60
2022-11-13T00:40:21.147Z,8.60
2022-11-13T00:43:09.047Z,8.60
2022-11-13T00:45:55.407Z,8.50
2022-11-13T00:48:41.898Z,8.50
2022-11-13T00:51:28.347Z,8.40
2022-11-13T00:54:14.735Z,8.40
2022-11-13T00:57:01.059Z,8.40
2022-11-13T00:59:48.952Z,8.40
2022-11-13T01:02:35.442Z,8.50
2022-11-13T01:05:22.235Z,8.50
2022-11-13T01:08:10.380Z,8.50
2022-11-13T01:10:56.564Z,8.50
2022-11-13T01:13:45.193Z,8.50
2022-11-13T01:16:33.102Z,8.50
2022-11-13T01:19:19.549Z,8.60
2022-11-13T01:22:05.822Z,8.60
2022-11-13T01:24:52.455Z,8.60
2022-11-13T01:27:39.533Z,8.50
2022-11-13T01:30:25.794Z,8.50
2022-11-13T01:33:13.516Z,8.40
2022-11-13T01:36:04.446Z,8.40
2022-11-13T01:38:51.708Z,8.30
2022-11-13T01:41:38.198Z,8.30
2022-11-13T01:44:24.526Z,8.30
2022-11-13T01:47:11.011Z,8.30
2022-11-13T01:50:01.983Z,8.40
2022-11-13T01:52:48.589Z,8.40
2022-11-13T01:55:35.330Z,8.40
2022-11-13T01:58:22.007Z,8.40
2022-11-13T02:01:08.391Z,8.30
2022-11-13T02:03:54.952Z,8.40
2022-11-13T02:06:47.080Z,8.40
2022-11-13T02:09:37.308Z,8.40
2022-11-13T02:12:30.328Z,8.40
2022-11-13T02:15:17.896Z,8.30
2022-11-13T02:18:04.856Z,8.30
2022-11-13T02:21:01.880Z,8.30
2022-11-13T02:23:57.651Z,8.40
2022-11-13T02:26:46.209Z,8.30
2022-11-13T02:29:33.185Z,8.30
2022-11-13T02:32:20.266Z,8.20
2022-11-13T02:35:07.387Z,8.10
2022-11-13T02:37:53.845Z,8.10
2022-11-13T02:40:40.235Z,8.00
2022-11-13T02:43:28.065Z,8.00
2022-11-13T02:46:14.472Z,8.00
2022-11-13T02:49:01.320Z,8.00
2022-11-13T02:51:48.004Z,8.00
2022-11-13T02:54:34.398Z,8.10
2022-11-13T02:57:21.106Z,8.10
2022-11-13T03:00:13.821Z,8.10
2022-11-13T03:03:01.188Z,8.00
2022-11-13T03:05:50.047Z,7.90
2022-11-13T03:08:37.185Z,7.90
2022-11-13T03:11:23.959Z,7.80
2022-11-13T03:14:10.437Z,7.80
2022-11-13T03:16:58.451Z,7.70
2022-11-13T03:19:45.293Z,7.70
2022-11-13T03:22:31.645Z,7.60
2022-11-13T03:25:18.286Z,7.60
2022-11-13T03:28:05.143Z,7.70
2022-11-13T03:30:51.967Z,7.60
2022-11-13T03:33:39.849Z,7.60
2022-11-13T03:36:26.682Z,7.60
2022-11-13T03:39:13.055Z,7.60
2022-11-13T03:41:59.441Z,7.60
2022-11-13T03:44:45.858Z,7.60
2022-11-13T03:47:32.231Z,7.50
2022-11-13T03:50:20.032Z,7.50
2022-11-13T03:53:06.751Z,7.40
2022-11-13T03:55:53.307Z,7.40
2022-11-13T03:58:40.433Z,7.40
2022-11-13T04:01:27.248Z,7.40
2022-11-13T04:04:13.977Z,7.30
2022-11-13T04:07:01.676Z,7.30
2022-11-13T04:09:48.626Z,7.30
2022-11-13T04:12:35.613Z,7.30
2022-11-13T04:15:22.348Z,7.40
2022-11-13T04:18:09.017Z,7.50
2022-11-13T04:21:00.924Z,7.50
2022-11-13T04:23:48.684Z,7.60
2022-11-13T04:26:35.192Z,7.60
2022-11-13T04:29:21.528Z,7.50
2022-11-13T04:32:08.347Z,7.50
2022-11-13T04:34:55.213Z,7.40
2022-11-13T04:37:41.749Z,7.40
2022-11-13T04:40:29.665Z,7.40
2022-11-13T04:43:15.424Z,7.40
2022-11-13T04:46:01.733Z,7.40
2022-11-13T04:48:48.069Z,7.50
2022-11-13T04:51:34.653Z,7.50
2022-11-13T04:54:25.786Z,7.40
2022-11-13T04:57:16.253Z,7.40
2022-11-13T05:00:03.543Z,7.40
2022-11-13T05:02:50.202Z,7.30
2022-11-13T05:05:36.744Z,7.30
2022-11-13T05:08:22.961Z,7.30
2022-11-13T05:11:09.282Z,7.30
2022-11-13T05:14:02.110Z,7.30
2022-11-13T05:16:51.636Z,7.20
2022-11-13T05:19:38.172Z,7.10
2022-11-13T05:22:25.049Z,7.10
2022-11-13T05:25:12.001Z,7.10
2022-11-13T05:27:59.176Z,7.10
2022-11-13T05:30:47.256Z,7.10
2022-11-13T05:33:33.948Z,7.20
2022-11-13T05:36:22.074Z,7.20
2022-11-13T05:39:08.475Z,7.10
2022-11-13T05:41:55.021Z,7.10
2022-11-13T05:44:41.563Z,7.10
2022-11-13T05:47:29.225Z,7.10
2022-11-13T05:50:16.236Z,7.10
2022-11-13T05:53:02.871Z,7.20
2022-11-13T05:55:49.252Z,7.20
2022-11-13T05:58:36.033Z,7.20
2022-11-13T06:01:24.308Z,7.20
2022-11-13T06:04:12.159Z,7.20
2022-11-13T06:06:58.524Z,7.20
2022-11-13T06:09:44.911Z,7.20
2022-11-13T06:12:31.650Z,7.10
2022-11-13T06:15:18.315Z,7.10
2022-11-13T06:18:04.888Z,7.10
2022-11-13T06:20:53.011Z,7.00
2022-11-13T06:23:40.726Z,7.00
2022-11-13T06:26:29.016Z,7.00
2022-11-13T06:29:15.607Z,6.90
2022-11-13T06:32:01.890Z,6.90
2022-11-13T06:34:48.309Z,6.90
2022-11-13T06:37:36.031Z,6.90
2022-11-13T06:40:22.344Z,6.90
2022-11-13T06:43:08.749Z,6.90
2022-11-13T06:45:55.787Z,6.80
2022-11-13T06:48:42.280Z,6.80
2022-11-13T06:51:30.927Z,6.80
2022-11-13T06:54:19.047Z,6.70
2022-11-13T06:57:05.540Z,6.70
2022-11-13T06:59:51.792Z,6.70
2022-11-13T07:02:38.419Z,6.70
2022-11-13T07:05:24.977Z,6.70
2022-11-13T07:08:11.597Z,6.70
2022-11-13T07:11:00.299Z,6.70
2022-11-13T07:13:47.472Z,6.70
2022-11-13T07:16:56.183Z,6.70
2022-11-13T07:19:40.346Z,6.60
2022-11-13T07:22:26.729Z,6.60
2022-11-13T07:25:13.407Z,6.70
2022-11-13T07:28:01.121Z,6.70
2022-11-13T07:30:47.757Z,6.70
2022-11-13T07:33:34.670Z,6.70
2022-11-13T07:36:21.215Z,6.70
2022-11-13T07:39:07.539Z,6.60
2022-11-13T07:41:54.023Z,6.60
2022-11-13T07:44:54.159Z,6.50
2022-11-13T07:47:41.164Z,6.50
2022-11-13T07:50:29.004Z,6.50
2022-11-13T07:53:15.538Z,6.60
2022-11-13T07:56:03.017Z,6.60
2022-11-13T07:58:49.876Z,6.60
2022-11-13T08:01:38.429Z,6.60
2022-11-13T08:04:24.893Z,6.60
2022-11-13T08:07:13.009Z,6.70
2022-11-13T08:09:59.690Z,6.70
2022-11-13T08:12:46.468Z,6.70
2022-11-13T08:15:33.507Z,6.70
2022-11-13T08:18:22.268Z,6.80
2022-11-13T08:21:13.616Z,6.80
2022-11-13T08:24:01.578Z,6.80
2022-11-13T08:26:48.051Z,6.80
2022-11-13T08:29:37.213Z,6.90
2022-11-13T08:32:23.803Z,6.90
2022-11-13T08:35:17.389Z,6.80
2022-11-13T08:38:06.785Z,6.80
2022-11-13T08:40:53.738Z,6.80
2022-11-13T08:43:40.748Z,6.80
2022-11-13T08:46:27.443Z,6.80
2022-11-13T08:49:13.833Z,6.90
2022-11-13T08:52:01.672Z,6.90
2022-11-13T08:54:48.690Z,7.00
2022-11-13T08:57:35.140Z,7.00
2022-11-13T09:00:22.220Z,7.10
2022-11-13T09:03:11.972Z,7.20
2022-11-13T09:05:58.693Z,7.20
2022-11-13T09:08:46.315Z,7.30
2022-11-13T09:11:32.980Z,7.30
2022-11-13T09:14:19.548Z,7.40
2022-11-13T09:17:05.977Z,7.40
2022-11-13T09:19:52.410Z,7.50
2022-11-13T09:22:38.812Z,7.50
2022-11-13T09:25:27.968Z,7.60
2022-11-13T09:28:17.086Z,7.60
2022-11-13T09:31:05.654Z,7.70
2022-11-13T09:33:52.172Z,7.70
2022-11-13T09:36:38.603Z,7.70
2022-11-13T09:39:25.232Z,7.80
2022-11-13T09:42:18.133Z,7.80
2022-11-13T09:45:09.499Z,7.80
2022-11-13T09:47:58.721Z,7.90
2022-11-13T09:50:45.231Z,7.90
2022-11-13T09:53:35.735Z,7.90
2022-11-13T09:56:32.995Z,7.90
2022-11-13T09:59:29.894Z,7.90
2022-11-13T10:02:24.160Z,7.90
2022-11-13T10:05:22.528Z,7.90
2022-11-13T10:08:15.145Z,7.90
2022-11-13T10:11:08.738Z,7.90
2022-11-13T10:14:02.311Z,7.90
2022-11-13T10:16:55.640Z,7.90
2022-11-13T10:19:48.765Z,7.90
2022-11-13T10:22:40.351Z,8.00
2022-11-13T10:25:30.027Z,8.00
2022-11-13T10:28:50.184Z,8.00
2022-11-13T10:31:26.584Z,8.10
2022-11-13T10:34:15.620Z,8.10
2022-11-13T10:37:14.319Z,8.10
2022-11-13T10:40:00.845Z,8.10
2022-11-13T10:42:47.306Z,8.10
2022-11-13T10:45:33.963Z,8.20
2022-11-13T10:48:22.000Z,8.20
2022-11-13T10:51:27.119Z,8.20
2022-11-13T10:54:24.181Z,8.30
2022-11-13T10:57:30.075Z,8.30
2022-11-13T11:00:25.913Z,8.40
2022-11-13T11:03:17.673Z,8.40
2022-11-13T11:06:05.859Z,8.50
2022-11-13T11:08:53.660Z,8.50
2022-11-13T11:11:57.997Z,8.60
2022-11-13T11:15:07.910Z,8.60
2022-11-13T11:18:01.062Z,8.70
2022-11-13T11:20:52.499Z,8.70
2022-11-13T11:23:45.759Z,8.80
2022-11-13T11:26:39.418Z,8.90
2022-11-13T11:29:31.503Z,9.00
2022-11-13T11:32:24.146Z,9.00
2022-11-13T11:35:18.610Z,9.10
2022-11-13T11:38:12.650Z,9.20
2022-11-13T11:41:08.898Z,9.30
2022-11-13T11:44:05.268Z,9.40
2022-11-13T11:46:51.834Z,9.40
2022-11-13T11:49:38.919Z,9.50
2022-11-13T11:52:44.211Z,9.60
2022-11-13T11:55:44.799Z,9.70
2022-11-13T11:58:56.353Z,9.70
2022-11-13T12:02:14.280Z,9.80
2022-11-13T12:05:27.245Z,9.90
2022-11-13T12:08:27.231Z,10.00
2022-11-13T12:11:21.788Z,10.10
2022-11-13T12:14:21.142Z,10.20
2022-11-13T12:17:28.400Z,10.20
2022-11-13T12:20:27.013Z,10.30
2022-11-13T12:23:27.747Z,10.40
2022-11-13T12:26:20.904Z,10.40
2022-11-13T12:29:17.324Z,10.50
2022-11-13T12:32:16.281Z,10.50
2022-11-13T12:35:09.696Z,10.60
2022-11-13T12:38:01.503Z,10.70
2022-11-13T12:40:52.053Z,10.80
2022-11-13T12:43:54.384Z,10.90
2022-11-13T12:46:42.530Z,10.90
2022-11-13T12:49:35.583Z,10.90
2022-11-13T12:52:24.410Z,10.90
2022-11-13T12:55:26.710Z,11.00
2022-11-13T12:58:21.243Z,11.10
2022-11-13T13:01:17.526Z,11.20
2022-11-13T13:04:40.410Z,11.20
2022-11-13T13:07:43.314Z,11.30
2022-11-13T13:10:37.439Z,11.30
2022-11-13T13:13:32.150Z,11.30
2022-11-13T13:16:25.830Z,11.40
2022-11-13T13:19:26.346Z,11.40
2022-11-13T13:22:27.035Z,11.40
2022-11-13T13:25:27.067Z,11.50
2022-11-13T13:28:21.386Z,11.50
2022-11-13T13:31:20.743Z,11.50
2022-11-13T13:34:23.427Z,11.50
2022-11-13T13:37:22.115Z,11.60
2022-11-13T13:40:21.660Z,11.60
2022-11-13T13:43:24.378Z,11.60
2022-11-13T13:46:16.144Z,11.70
2022-11-13T13:49:06.728Z,11.70
2022-11-13T13:51:55.632Z,11.70
2022-11-13T13:54:45.587Z,11.70
2022-11-13T13:57:32.122Z,11.80
2022-11-13T14:00:21.346Z,11.80
2022-11-13T14:03:19.311Z,11.80
2022-11-13T14:06:27.399Z,11.80
2022-11-13T14:09:19.523Z,11.90
2022-11-13T14:12:18.681Z,11.90
2022-11-13T14:15:06.833Z,11.90
2022-11-13T14:17:53.337Z,11.90
2022-11-13T14:20:44.121Z,11.90
2022-11-13T14:23:33.138Z,11.90
2022-11-13T14:26:20.674Z,11.90
2022-11-13T14:29:23.954Z,11.90
2022-11-13T14:32:22.271Z,11.90
2022-11-13T14:35:19.017Z,11.80
2022-11-13T14:38:05.386Z,11.80
2022-11-13T14:40:52.303Z,11.80
2022-11-13T14:43:39.073Z,11.80
2022-11-13T14:46:32.027Z,11.80
2022-11-13T14:49:29.023Z,11.80
2022-11-13T14:52:22.831Z,11.70
2022-11-13T14:55:21.463Z,11.70
2022-11-13T14:58:12.286Z,11.70
2022-11-13T15:01:15.978Z,11.60
2022-11-13T15:04:04.412Z,11.60
2022-11-13T15:06:55.413Z,11.60
2022-11-13T15:09:42.120Z,11.60
2022-11-13T15:12:28.496Z,11.50
2022-11-13T15:15:15.996Z,11.50
2022-11-13T15:18:03.272Z,11.50
2022-11-13T15:20:51.065Z,11.40
2022-11-13T15:23:37.437Z,11.40
2022-11-13T15:26:24.232Z,11.30
2022-11-13T15:29:10.665Z,11.30
2022-11-13T15:31:58.050Z,11.20
2022-11-13T15:34:44.538Z,11.10
2022-11-13T15:37:33.139Z,11.10
2022-11-13T15:40:19.587Z,11.10
2022-11-13T15:43:06.752Z,11.00
2022-11-13T15:45:53.104Z,10.90
2022-11-13T15:48:39.484Z,10.80
2022-11-13T15:51:29.136Z,10.80
2022-11-13T15:54:23.716Z,10.70
2022-11-13T15:57:19.169Z,10.70
2022-11-13T16:00:13.595Z,10.60
2022-11-13T16:02:59.959Z,10.60
2022-11-13T16:05:46.573Z,10.50
2022-11-13T16:08:32.785Z,10.50
2022-11-13T16:11:21.705Z,10.40
2022-11-13T16:14:08.461Z,10.30
2022-11-13T16:16:55.192Z,10.20
2022-11-13T16:19:42.871Z,10.10
2022-11-13T16:22:29.525Z,10.10
2022-11-13T16:25:18.532Z,10.00
2022-11-13T16:28:09.520Z,10.00
2022-11-13T16:30:56.136Z,10.00
2022-11-13T16:33:44.409Z,9.90
2022-11-13T16:36:31.434Z,9.90
2022-11-13T16:39:18.279Z,9.80
2022-11-13T16:42:05.062Z,9.70
2022-11-13T16:44:53.167Z,9.60
2022-11-13T16:47:39.675Z,9.60
2022-11-13T16:50:30.422Z,9.50
2022-11-13T16:53:16.803Z,9.50
2022-11-13T16:56:03.661Z,9.50
2022-11-13T16:58:50.172Z,9.50
2022-11-13T17:01:38.076Z,9.40
2022-11-13T17:04:24.971Z,9.40
2022-11-13T17:07:13.850Z,9.30
2022-11-13T17:10:29.049Z,9.30
2022-11-13T17:13:07.252Z,9.30
2022-11-13T17:15:53.619Z,9.30
2022-11-13T17:18:41.422Z,9.20
2022-11-13T17:21:30.888Z,9.10
2022-11-13T17:24:17.411Z,9.10
2022-11-13T17:27:04.006Z,9.10
2022-11-13T17:29:50.366Z,9.00
2022-11-13T17:32:36.660Z,9.00
2022-11-13T17:35:24.394Z,9.00
2022-11-13T17:38:14.596Z,9.00
2022-11-13T17:41:05.745Z,9.00
2022-11-13T17:43:54.607Z,8.90
2022-11-13T17:46:44.891Z,8.70
2022-11-13T17:49:31.160Z,8.70
2022-11-13T17:52:19.163Z,8.70
2022-11-13T17:55:10.624Z,8.70
2022-11-13T17:58:00.231Z,8.60
2022-11-13T18:00:46.947Z,8.60
2022-11-13T18:03:33.516Z,8.60
2022-11-13T18:06:21.256Z,8.60
2022-11-13T18:09:09.143Z,8.60
2022-11-13T18:11:55.709Z,8.50
2022-11-13T18:14:42.133Z,8.50
2022-11-13T18:17:28.567Z,8.50
2022-11-13T18:20:15.021Z,8.50
2022-11-13T18:23:01.544Z,8.50
2022-11-13T18:25:49.241Z,8.50
2022-11-13T18:28:35.995Z,8.50
2022-11-13T18:31:23.290Z,8.50
2022-11-13T18:34:12.655Z,8.50
2022-11-13T18:36:59.570Z,8.50
2022-11-13T18:39:46.255Z,8.40
2022-11-13T18:42:34.135Z,8.40
2022-11-13T18:45:20.652Z,8.30
2022-11-13T18:48:07.001Z,8.30
2022-11-13T18:50:57.139Z,8.30
2022-11-13T18:53:45.655Z,8.30
2022-11-13T18:56:33.468Z,8.30
2022-11-13T18:59:21.416Z,8.20
2022-11-13T19:02:07.947Z,8.20
2022-11-13T19:04:54.593Z,8.20
2022-11-13T19:07:40.829Z,8.20
2022-11-13T19:10:27.433Z,8.20
2022-11-13T19:13:13.999Z,8.20
2022-11-13T19:16:06.488Z,8.10
2022-11-13T19:18:54.350Z,8.10
2022-11-13T19:21:41.357Z,8.10
2022-11-13T19:24:28.136Z,8.10
2022-11-13T19:27:14.481Z,8.10
2022-11-13T19:30:00.758Z,8.10
2022-11-13T19:32:48.677Z,8.10
2022-11-13T19:35:34.989Z,8.10
2022-11-13T19:38:21.684Z,8.10
2022-11-13T19:41:09.131Z,8.10
2022-11-13T19:43:56.065Z,8.10
2022-11-13T19:46:44.889Z,8.10
2022-11-13T19:49:34.440Z,8.00
2022-11-13T19:52:20.944Z,8.00
2022-11-13T19:55:07.787Z,8.00
2022-11-13T19:57:54.376Z,8.00
2022-11-13T20:00:41.619Z,8.00
2022-11-13T20:03:28.269Z,8.00
2022-11-13T20:06:17.879Z,8.10
2022-11-13T20:09:04.679Z,8.10
2022-11-13T20:11:51.405Z,8.10
2022-11-13T20:14:38.638Z,8.10
2022-11-13T20:17:25.412Z,8.10
2022-11-13T20:20:12.681Z,8.10
2022-11-13T20:23:00.676Z,8.00
2022-11-13T20:25:53.138Z,8.10
2022-11-13T20:28:39.432Z,8.10
2022-11-13T20:31:27.661Z,8.10
2022-11-13T20:34:14.563Z,8.10
2022-11-13T20:37:01.354Z,8.10
2022-11-13T20:39:49.382Z,8.10
2022-11-13T20:42:35.768Z,8.20
2022-11-13T20:45:22.247Z,8.20
2022-11-13T20:48:08.781Z,8.20
2022-11-13T20:50:55.133Z,8.30
2022-11-13T20:53:42.098Z,8.30
2022-11-13T20:56:29.848Z,8.40
2022-11-13T20:59:16.726Z,8.40
2022-11-13T21:02:03.267Z,8.40
2022-11-13T21:04:50.069Z,8.50
2022-11-13T21:07:36.882Z,8.50
2022-11-13T21:10:23.668Z,8.50
2022-11-13T21:13:11.395Z,8.50
2022-11-13T21:15:57.762Z,8.40
2022-11-13T21:18:44.373Z,8.40
2022-11-13T21:21:31.756Z,8.30
2022-11-13T21:24:18.657Z,8.20
2022-11-13T21:27:05.445Z,8.20
2022-11-13T21:29:54.619Z,8.10
2022-11-13T21:32:41.331Z,8.00
2022-11-13T21:35:28.811Z,8.00
2022-11-13T21:38:15.495Z,8.00
2022-11-13T21:41:20.289Z,8.00
2022-11-13T21:44:08.711Z,7.90
2022-11-13T21:46:56.715Z,7.90
2022-11-13T21:49:43.761Z,7.90
2022-11-13T21:52:30.553Z,7.90
2022-11-13T21:55:17.445Z,7.90
2022-11-13T21:58:03.952Z,7.90
2022-11-13T22:00:50.265Z,8.00
2022-11-13T22:03:38.735Z,8.00
2022-11-13T22:06:27.500Z,8.00
2022-11-13T22:09:15.835Z,8.00
2022-11-13T22:12:02.309Z,8.10
2022-11-13T22:14:48.827Z,8.10
2022-11-13T22:17:35.364Z,8.00
2022-11-13T22:20:23.167Z,8.00
2022-11-13T22:23:09.645Z,8.00
2022-11-13T22:26:01.449Z,8.00
2022-11-13T22:28:49.248Z,8.00
2022-11-13T22:31:37.197Z,8.00
2022-11-13T22:34:23.748Z,7.90
2022-11-13T22:37:11.605Z,7.80
2022-11-13T22:39:58.143Z,7.70
2022-11-13T22:42:44.584Z,7.60
2022-11-13T22:45:31.201Z,7.50
2022-11-13T22:48:17.666Z,7.30
2022-11-13T22:51:06.095Z,7.20
2022-11-13T22:53:56.314Z,7.00
2022-11-13T22:56:43.351Z,7.00
2022-11-13T22:59:30.099Z,6.90
2022-11-13T23:02:17.642Z,6.80
2022-11-13T23:05:05.204Z,6.80
2022-11-13T23:07:51.759Z,6.80
2022-11-13T23:10:40.403Z,6.90
2022-11-13T23:13:27.033Z,7.00
2022-11-13T23:16:14.782Z,7.00
2022-11-13T23:19:02.429Z,7.10
2022-11-13T23:21:49.320Z,7.10
2022-11-13T23:24:36.067Z,7.20
2022-11-13T23:27:23.810Z,7.30
2022-11-13T23:30:11.751Z,7.40
2022-11-13T23:32:58.157Z,7.40
2022-11-13T23:35:44.963Z,7.50
2022-11-13T23:38:31.985Z,7.50
2022-11-13T23:41:18.503Z,7.50
2022-11-13T23:44:09.496Z,7.40
2022-11-13T23:46:57.404Z,7.30
2022-11-13T23:49:43.778Z,7.20
2022-11-13T23:52:30.178Z,7.20
2022-11-13T23:55:17.370Z,7.20
2022-11-13T23:58:06.171Z,7.20
